アリススプリングス の空港の天気 - METARとTAF

アリス・スプリングス空港 ( YBAS / ASP ) - オーストラリア ノーザンテリトリーアリススプリングス
飛行場実況気象(Metar)
観測時間10/19 08:30 ACST (10/18 23:00 UTC)
風向・風速東南東 4m/s
視程10km以上
天気現象
なし
気温29℃
湿度23%
気圧1016hPa
METARYBAS 182300Z AUTO 11007KT 9999 // NCD 29/06 Q1016
過去の天気等 Google飛行場航空写真 Wunderground天気予報

過去48時間のMETAR

飛行場予報(TAF)
発表時間: 10/19 08:49 ACST (10/18 23:19 UTC)
予報対象時間: 19日9時 ACST ~ 20日9時 ACST
風向・風速南東 7m/s
視程10km以上
なし
20日8時 ACST から
風向・風速南東 8m/s 瞬間風速 13m/s
視程10km以上
なし
TAF YBAS 182319Z 1900/1924 14014KT CAVOK
FM192300 13016G26KT CAVOK